Time;durP1;ratioP1;P1;durP2;ratioP2;P2;SDS_P1;SDS_P2;PMS_P1;PMS_P2;Temp;Humidity;BMP_temperature;BMP_pressure;BME280_temperature;BME280_humidity;BME280_pressure;Samples;Min_cycle;Max_cycle;Signal;HPM_P1;HPM_P2
2022/03/04 00:02:06;;;;;;;0.80;0.80;;;-3.40;99.90;;;;;;4963691;28;20020;-73
2022/03/04 00:04:36;;;;;;;1.67;0.85;;;-3.40;99.90;;;;;;4968226;28;20027;-73
2022/03/04 00:07:06;;;;;;;3.42;0.90;;;-3.50;99.90;;;;;;4968576;28;20529;-72
2022/03/04 00:09:33;;;;;;;1.40;0.85;;;-3.50;99.90;;;;;;4976113;28;20038;-73
2022/03/04 00:11:59;;;;;;;1.35;0.90;;;-3.60;99.90;;;;;;4976349;28;20441;-72
2022/03/04 00:14:25;;;;;;;0.80;0.80;;;-3.60;99.90;;;;;;4976513;28;20030;-72
2022/03/04 00:16:51;;;;;;;0.95;0.90;;;-3.60;99.90;;;;;;4976089;28;20027;-73
2022/03/04 00:19:18;;;;;;;1.02;0.93;;;-3.60;99.90;;;;;;4976460;28;20410;-73
2022/03/04 00:21:48;;;;;;;1.02;0.80;;;-3.60;99.90;;;;;;4976225;28;20034;-73
2022/03/04 00:24:14;;;;;;;1.92;1.00;;;-3.60;99.90;;;;;;4976181;28;20390;-73
2022/03/04 00:26:41;;;;;;;1.13;1.00;;;-3.60;99.90;;;;;;4976017;28;20041;-73
2022/03/04 00:29:07;;;;;;;2.05;1.05;;;-3.60;99.90;;;;;;4976220;28;20109;-73
2022/03/04 00:31:34;;;;;;;1.00;0.80;;;-3.60;99.90;;;;;;4975997;28;20037;-73
2022/03/04 00:34:00;;;;;;;1.45;0.93;;;-3.60;99.90;;;;;;4976020;28;20625;-73
2022/03/04 00:36:27;;;;;;;0.90;0.90;;;-3.60;99.90;;;;;;4975876;28;20614;-73
2022/03/04 00:38:55;;;;;;;1.02;0.98;;;-3.60;99.90;;;;;;4975930;28;20058;-73
2022/03/04 00:41:22;;;;;;;1.65;1.10;;;-3.70;99.90;;;;;;4975737;28;20108;-73
2022/03/04 00:43:49;;;;;;;1.00;0.90;;;-3.70;99.90;;;;;;4975898;28;20042;-73
2022/03/04 00:46:16;;;;;;;1.15;1.05;;;-3.70;99.90;;;;;;4975659;28;20023;-72
2022/03/04 00:48:43;;;;;;;1.15;0.90;;;-3.70;99.90;;;;;;4975961;28;20131;-72
2022/03/04 00:51:09;;;;;;;1.10;1.00;;;-3.70;99.90;;;;;;4975541;28;20498;-72
2022/03/04 00:53:36;;;;;;;2.45;0.90;;;-3.80;99.90;;;;;;4975634;28;20384;-72
2022/03/04 00:56:02;;;;;;;1.02;0.93;;;-3.80;99.90;;;;;;4975590;28;20078;-72
2022/03/04 00:58:28;;;;;;;3.00;0.80;;;-3.80;99.90;;;;;;4975494;28;20106;-72
2022/03/04 01:00:53;;;;;;;0.80;0.80;;;-3.80;99.90;;;;;;4975787;28;20110;-72
2022/03/04 01:03:19;;;;;;;1.23;0.90;;;-3.80;99.90;;;;;;4975310;28;20025;-72
2022/03/04 01:05:45;;;;;;;0.80;0.80;;;-3.80;99.90;;;;;;4975373;28;20027;-72
2022/03/04 01:08:11;;;;;;;2.83;0.80;;;-3.80;99.90;;;;;;4975450;28;20085;-71
2022/03/04 01:10:37;;;;;;;0.90;0.90;;;-3.90;99.90;;;;;;4975739;28;20497;-72
2022/03/04 01:13:04;;;;;;;2.45;1.02;;;-3.90;99.90;;;;;;4975185;28;20022;-72
2022/03/04 01:15:30;;;;;;;1.65;0.80;;;-3.90;99.90;;;;;;4975357;28;20482;-73
2022/03/04 01:17:56;;;;;;;0.88;0.88;;;-3.90;99.90;;;;;;4973904;28;20088;-72
2022/03/04 01:20:22;;;;;;;1.83;1.05;;;-3.90;99.90;;;;;;4975232;28;20027;-73
2022/03/04 01:22:48;;;;;;;1.75;0.90;;;-3.90;99.90;;;;;;4975235;28;20035;-74
2022/03/04 01:25:14;;;;;;;2.35;0.90;;;-3.90;99.90;;;;;;4975049;28;20030;-74
2022/03/04 01:27:40;;;;;;;0.80;0.80;;;-3.80;99.90;;;;;;4965637;28;20038;-74
2022/03/04 01:30:08;;;;;;;0.80;0.80;;;-3.80;99.90;;;;;;4955852;28;20115;-73
2022/03/04 01:32:34;;;;;;;1.67;1.05;;;-3.80;99.90;;;;;;4956068;28;20143;-73
2022/03/04 01:35:00;;;;;;;0.80;0.80;;;-3.90;99.90;;;;;;4955727;28;20043;-73
2022/03/04 01:37:26;;;;;;;1.98;0.90;;;-3.90;99.90;;;;;;4955196;28;20055;-72
2022/03/04 01:39:52;;;;;;;1.00;1.00;;;-3.90;99.90;;;;;;4955671;29;20030;-73
2022/03/04 01:42:18;;;;;;;0.93;0.90;;;-3.90;99.90;;;;;;4955346;28;20046;-72
2022/03/04 01:44:43;;;;;;;0.90;0.90;;;-3.90;99.90;;;;;;4955504;28;20020;-73
2022/03/04 01:47:10;;;;;;;0.90;0.90;;;-3.90;99.90;;;;;;4955428;28;20027;-73
2022/03/04 01:49:35;;;;;;;1.42;1.00;;;-4.00;99.90;;;;;;4955426;28;20031;-74
2022/03/04 01:52:02;;;;;;;0.85;0.85;;;-4.00;99.90;;;;;;4955286;29;20027;-73
2022/03/04 01:54:28;;;;;;;1.10;1.00;;;-4.10;99.90;;;;;;4955238;28;20479;-73
2022/03/04 01:56:54;;;;;;;0.77;0.77;;;-4.10;99.90;;;;;;4955178;29;20042;-73
2022/03/04 01:59:19;;;;;;;1.00;0.90;;;-4.20;99.90;;;;;;4955120;28;20027;-74
2022/03/04 02:01:45;;;;;;;2.97;1.00;;;-4.20;99.90;;;;;;4955223;29;20027;-74
2022/03/04 02:04:11;;;;;;;2.80;0.95;;;-4.20;99.90;;;;;;4955230;28;20015;-73
2022/03/04 02:06:37;;;;;;;1.02;0.77;;;-4.30;99.90;;;;;;4954959;28;20027;-73
2022/03/04 02:09:03;;;;;;;2.30;1.00;;;-4.30;99.90;;;;;;4955141;29;20094;-74
2022/03/04 02:11:29;;;;;;;2.38;1.00;;;-4.30;99.90;;;;;;4955393;28;20023;-75
2022/03/04 02:13:55;;;;;;;1.45;1.00;;;-4.30;99.90;;;;;;4955306;28;20467;-75
2022/03/04 02:16:36;;;;;;;1.20;0.93;;;-4.30;99.90;;;;;;4954867;28;20431;-75
2022/03/04 02:19:03;;;;;;;3.85;0.75;;;-4.30;99.90;;;;;;4954939;28;20035;-75
2022/03/04 02:21:31;;;;;;;3.53;0.98;;;-4.30;99.90;;;;;;4954760;28;20035;-75
2022/03/04 02:53:01;;;;;;;1.70;0.98;;;-4.60;99.90;;;;;;4953366;29;20542;-72
2022/03/04 02:55:27;;;;;;;2.28;1.02;;;-4.50;99.90;;;;;;4954956;29;20031;-72
2022/03/04 02:57:52;;;;;;;1.88;1.00;;;-4.50;99.90;;;;;;4954377;29;20034;-75
2022/03/04 03:00:18;;;;;;;0.98;0.90;;;-4.50;99.90;;;;;;4954107;28;20114;-75
2022/03/04 03:02:45;;;;;;;2.00;1.00;;;-4.50;99.90;;;;;;4954262;29;20147;-75
2022/03/04 03:38:50;;;;;;;2.85;0.80;;;-4.70;99.90;;;;;;5253722;23;20062;-76
2022/03/04 03:41:16;;;;;;;1.58;0.90;;;-4.70;99.90;;;;;;4954778;28;20027;-74
2022/03/04 03:43:43;;;;;;;2.00;0.80;;;-4.70;99.90;;;;;;4957717;28;20474;-74
2022/03/04 03:46:09;;;;;;;1.27;0.90;;;-4.70;99.90;;;;;;4958032;28;20066;-74
2022/03/04 03:48:39;;;;;;;0.90;0.80;;;-4.80;99.90;;;;;;4957591;28;20105;-74
2022/03/04 03:51:05;;;;;;;2.30;1.00;;;-4.80;99.90;;;;;;4958233;28;20089;-74
2022/03/04 03:53:32;;;;;;;0.95;0.88;;;-4.80;99.90;;;;;;4957570;28;20035;-74
2022/03/04 03:55:57;;;;;;;3.00;1.00;;;-4.70;99.90;;;;;;4957510;28;20082;-74
2022/03/04 03:58:23;;;;;;;0.95;0.90;;;-4.60;99.90;;;;;;4956140;28;20031;-75
2022/03/04 04:00:49;;;;;;;1.27;1.02;;;-4.60;99.90;;;;;;4957348;29;20027;-75
2022/03/04 04:03:15;;;;;;;2.33;1.10;;;-4.60;99.90;;;;;;4957407;28;20035;-75
2022/03/04 04:05:41;;;;;;;0.95;0.95;;;-4.60;99.90;;;;;;4957362;28;20058;-72
2022/03/04 04:08:07;;;;;;;2.60;1.00;;;-4.60;99.90;;;;;;4957489;29;20043;-72
2022/03/04 04:10:32;;;;;;;2.20;1.05;;;-4.60;99.90;;;;;;4957648;29;20019;-72
2022/03/04 04:12:58;;;;;;;1.27;0.93;;;-4.60;99.90;;;;;;4957091;29;20474;-72
2022/03/04 04:15:24;;;;;;;1.73;1.00;;;-4.50;99.90;;;;;;4957347;29;20024;-72
2022/03/04 04:17:49;;;;;;;1.75;1.13;;;-4.50;99.90;;;;;;4957082;29;20561;-72
2022/03/04 04:20:15;;;;;;;2.50;1.05;;;-4.50;99.90;;;;;;4957520;28;20040;-74
2022/03/04 04:22:41;;;;;;;1.13;1.02;;;-4.50;99.90;;;;;;4957067;28;20030;-75
2022/03/04 04:25:08;;;;;;;0.95;0.95;;;-4.60;99.90;;;;;;4957149;29;20108;-75
2022/03/04 04:27:34;;;;;;;2.35;1.38;;;-4.70;99.90;;;;;;4957024;28;20043;-75
2022/03/04 04:30:00;;;;;;;1.88;1.00;;;-4.80;99.90;;;;;;4958254;28;20102;-75
2022/03/04 04:32:26;;;;;;;2.45;1.00;;;-4.90;99.90;;;;;;4957213;28;20111;-75
2022/03/04 04:34:51;;;;;;;1.58;1.00;;;-5.00;99.90;;;;;;4957398;28;20024;-73
2022/03/04 04:37:17;;;;;;;1.88;0.93;;;-4.90;99.90;;;;;;4956740;28;20023;-74
2022/03/04 04:39:43;;;;;;;3.22;0.90;;;-4.90;99.90;;;;;;4971442;28;20046;-71
2022/03/04 04:42:08;;;;;;;3.83;1.10;;;-4.80;99.90;;;;;;4956710;29;20475;-69
2022/03/04 04:44:34;;;;;;;1.10;1.08;;;-4.80;99.90;;;;;;4956682;29;20035;-70
2022/03/04 04:47:00;;;;;;;0.90;0.90;;;-4.80;99.90;;;;;;4956714;29;20471;-70
2022/03/04 04:49:26;;;;;;;2.20;1.00;;;-4.80;99.90;;;;;;4956828;28;20039;-70
2022/03/04 04:51:52;;;;;;;0.90;0.90;;;-4.80;99.90;;;;;;4956470;28;20027;-72
2022/03/04 04:54:18;;;;;;;1.25;1.00;;;-4.80;99.90;;;;;;4956531;28;20055;-72
2022/03/04 04:56:44;;;;;;;1.00;1.00;;;-4.70;99.90;;;;;;4956416;28;20027;-71
2022/03/04 04:59:10;;;;;;;1.13;1.00;;;-4.70;99.90;;;;;;4956323;28;20027;-72
2022/03/04 05:01:36;;;;;;;2.75;0.88;;;-4.70;99.90;;;;;;4956257;28;20089;-71
2022/03/04 05:04:02;;;;;;;1.38;1.00;;;-4.80;99.90;;;;;;4956129;29;20118;-71
2022/03/04 05:06:27;;;;;;;1.50;1.30;;;-5.00;99.90;;;;;;4956371;29;20026;-71
2022/03/04 05:08:53;;;;;;;3.33;1.10;;;-5.00;99.90;;;;;;4955945;29;20047;-71
2022/03/04 05:11:19;;;;;;;1.17;1.08;;;-5.00;99.90;;;;;;4956252;29;20059;-70
2022/03/04 05:13:45;;;;;;;3.05;1.00;;;-4.90;99.90;;;;;;4955992;28;20058;-70
2022/03/04 05:16:11;;;;;;;4.13;1.00;;;-4.90;99.90;;;;;;4954838;29;20467;-70
2022/03/04 05:18:36;;;;;;;1.10;1.00;;;-4.90;99.90;;;;;;4955957;29;20024;-71
2022/03/04 05:21:03;;;;;;;1.58;1.10;;;-4.90;99.90;;;;;;4954575;28;20483;-71
2022/03/04 05:26:13;;;;;;;1.02;0.93;;;-4.90;99.90;;;;;;4956319;29;20109;-70
2022/03/04 05:28:38;;;;;;;5.88;1.45;;;-4.90;99.90;;;;;;4955811;28;20491;-70
2022/03/04 05:31:04;;;;;;;1.95;1.15;;;-4.90;99.90;;;;;;4955815;29;20054;-68
2022/03/04 05:33:30;;;;;;;1.15;1.02;;;-4.90;99.90;;;;;;4955643;29;20027;-72
2022/03/04 05:35:55;;;;;;;2.80;1.10;;;-4.90;99.90;;;;;;4955492;29;20032;-73
2022/03/04 05:38:21;;;;;;;3.40;1.20;;;-5.00;99.90;;;;;;4953974;28;20159;-75
2022/03/04 05:40:47;;;;;;;1.20;1.10;;;-5.00;99.90;;;;;;4955221;29;20043;-71
2022/03/04 05:43:13;;;;;;;0.98;0.93;;;-4.60;99.90;;;;;;4955369;29;20106;-72
2022/03/04 05:45:38;;;;;;;3.10;1.10;;;-4.20;99.90;;;;;;4953786;28;20147;-75
2022/03/04 05:48:04;;;;;;;1.15;0.93;;;-4.30;99.90;;;;;;4954851;28;20035;-72
2022/03/04 05:50:30;;;;;;;1.08;1.08;;;-4.40;99.90;;;;;;4955424;29;20027;-71
2022/03/04 05:52:56;;;;;;;1.70;1.20;;;-4.50;99.90;;;;;;4954529;29;20035;-71
2022/03/04 05:55:22;;;;;;;2.05;1.00;;;-4.70;99.90;;;;;;4954732;28;20026;-72
2022/03/04 05:57:48;;;;;;;1.88;1.17;;;-4.80;99.90;;;;;;4946604;28;20039;-67
2022/03/04 06:00:13;;;;;;;4.15;1.27;;;-4.80;99.90;;;;;;4952151;29;20028;-73
2022/03/04 06:02:39;;;;;;;1.55;1.23;;;-4.90;99.90;;;;;;4952832;29;20486;-76
2022/03/04 06:05:05;;;;;;;1.75;1.00;;;-5.00;99.90;;;;;;4953402;28;20027;-71
2022/03/04 06:07:33;;;;;;;1.35;1.20;;;-5.00;99.90;;;;;;4954275;28;20390;-71
2022/03/04 06:09:59;;;;;;;3.63;1.60;;;-5.00;99.90;;;;;;4954193;29;20031;-71
2022/03/04 06:12:25;;;;;;;7.70;4.15;;;-5.10;99.90;;;;;;4952153;28;20047;-71
2022/03/04 06:14:51;;;;;;;2.63;2.42;;;-5.20;99.90;;;;;;4944547;29;20111;-71
2022/03/04 06:17:17;;;;;;;3.10;1.63;;;-5.20;99.90;;;;;;4944572;29;20038;-71
2022/03/04 06:19:44;;;;;;;3.70;3.50;;;-5.20;99.90;;;;;;4950051;28;20110;-70
2022/03/04 06:22:10;;;;;;;2.80;2.13;;;-5.10;99.90;;;;;;4951230;29;20063;-70
2022/03/04 06:24:36;;;;;;;3.03;1.30;;;-4.90;99.90;;;;;;4951503;29;20083;-71
2022/03/04 06:27:02;;;;;;;1.25;1.17;;;-4.90;99.90;;;;;;4954679;28;20030;-73
2022/03/04 06:29:28;;;;;;;1.42;1.00;;;-4.90;99.90;;;;;;4954667;28;20417;-74
2022/03/04 06:31:54;;;;;;;1.60;1.10;;;-4.90;99.90;;;;;;4954654;28;20023;-70
2022/03/04 06:34:19;;;;;;;1.20;1.08;;;-4.60;99.90;;;;;;4954798;29;20027;-71
2022/03/04 06:36:45;;;;;;;2.90;1.20;;;-4.40;99.90;;;;;;4954513;28;20038;-71
2022/03/04 06:39:12;;;;;;;1.98;1.25;;;-4.20;99.90;;;;;;4954201;28;20058;-73
2022/03/04 06:41:38;;;;;;;3.65;1.33;;;-4.10;99.90;;;;;;4969299;28;20019;-73
2022/03/04 06:44:04;;;;;;;1.05;1.05;;;-4.10;99.90;;;;;;4953046;29;20086;-73
2022/03/04 06:46:29;;;;;;;2.10;1.20;;;-4.20;99.90;;;;;;4953235;29;20106;-73
2022/03/04 06:48:55;;;;;;;3.30;1.33;;;-4.30;99.90;;;;;;4954129;29;20127;-73
2022/03/04 06:51:21;;;;;;;1.58;1.00;;;-4.40;99.90;;;;;;4954358;29;20042;-74
2022/03/04 06:53:47;;;;;;;1.25;1.15;;;-4.50;99.90;;;;;;4954261;28;20030;-73
2022/03/04 06:56:16;;;;;;;2.20;1.08;;;-4.60;99.90;;;;;;4954278;29;20019;-74
2022/03/04 06:58:42;;;;;;;2.55;1.30;;;-4.70;99.90;;;;;;4952905;29;20031;-74
2022/03/04 07:01:08;;;;;;;1.40;1.30;;;-4.70;99.90;;;;;;4954115;28;20015;-74
2022/03/04 07:03:33;;;;;;;1.88;1.30;;;-4.80;99.90;;;;;;4952970;29;20521;-74
2022/03/04 07:05:59;;;;;;;1.40;1.15;;;-4.90;99.90;;;;;;4954197;28;20034;-74
2022/03/04 07:08:25;;;;;;;1.25;1.15;;;-4.90;99.90;;;;;;4954023;29;20043;-73
2022/03/04 07:10:51;;;;;;;2.30;1.10;;;-3.90;99.90;;;;;;4954000;29;20549;-73
2022/03/04 07:13:19;;;;;;;1.10;1.08;;;-3.10;99.90;;;;;;4954070;29;20110;-76
2022/03/04 07:15:44;;;;;;;1.13;1.10;;;-3.60;99.90;;;;;;4954018;28;20046;-74
2022/03/04 07:18:11;;;;;;;1.77;1.30;;;-4.00;99.90;;;;;;4953940;29;20549;-79
2022/03/04 07:20:37;;;;;;;3.97;1.27;;;-4.20;99.90;;;;;;4954155;28;20031;-70
2022/03/04 07:23:04;;;;;;;1.13;1.02;;;-4.40;99.90;;;;;;4953702;28;20023;-73
2022/03/04 07:25:29;;;;;;;2.50;1.20;;;-4.40;99.90;;;;;;4952572;29;20568;-71
2022/03/04 07:27:55;;;;;;;2.58;1.30;;;-4.50;99.90;;;;;;4953685;29;20087;-71
2022/03/04 07:30:21;;;;;;;1.13;1.10;;;-4.50;99.90;;;;;;4952580;29;20482;-73
2022/03/04 07:32:48;;;;;;;0.95;0.95;;;-4.60;99.90;;;;;;4953945;29;20113;-77
2022/03/04 07:35:14;;;;;;;1.10;1.10;;;-4.60;99.90;;;;;;4953468;28;20519;-76
2022/03/04 07:37:42;;;;;;;1.73;1.00;;;-4.60;99.90;;;;;;4951802;28;20164;-76
2022/03/04 07:40:13;;;;;;;1.98;1.08;;;-4.60;99.90;;;;;;4953526;28;20545;-76
2022/03/04 07:42:38;;;;;;;1.73;1.20;;;-4.50;99.90;;;;;;4953880;28;20054;-72
2022/03/04 07:45:06;;;;;;;3.33;1.10;;;-4.50;99.90;;;;;;4953525;28;20463;-76
2022/03/04 07:47:32;;;;;;;1.48;1.25;;;-4.50;99.90;;;;;;4953384;28;20032;-77
2022/03/04 07:49:58;;;;;;;1.55;1.25;;;-4.50;99.90;;;;;;4953459;28;20020;-74
2022/03/04 07:52:31;;;;;;;1.40;1.30;;;-4.40;99.90;;;;;;4953616;29;20509;-74
2022/03/04 07:55:00;;;;;;;0.90;0.90;;;-4.40;99.90;;;;;;4953369;28;20023;-71
2022/03/04 07:57:26;;;;;;;2.13;1.20;;;-4.30;99.90;;;;;;4953481;28;20443;-72
2022/03/04 07:59:52;;;;;;;4.32;1.40;;;-4.30;99.90;;;;;;4953278;28;20054;-72
2022/03/04 08:02:18;;;;;;;1.75;0.93;;;-4.30;99.90;;;;;;4953529;29;20471;-72
2022/03/04 08:04:45;;;;;;;1.20;1.10;;;-4.30;99.90;;;;;;4953407;28;20471;-72
2022/03/04 08:07:10;;;;;;;1.88;1.23;;;-4.30;99.90;;;;;;4953579;28;20039;-72
2022/03/04 08:09:36;;;;;;;1.10;1.10;;;-4.20;99.90;;;;;;4953274;29;20372;-73
2022/03/04 08:12:02;;;;;;;2.58;1.25;;;-4.20;99.90;;;;;;4953303;28;20475;-69
2022/03/04 08:14:29;;;;;;;6.05;1.38;;;-4.10;99.90;;;;;;4953204;28;20035;-73
2022/03/04 08:16:55;;;;;;;1.95;1.83;;;-4.00;99.90;;;;;;4953130;28;20361;-69
2022/03/04 08:19:20;;;;;;;1.60;1.50;;;-3.90;99.90;;;;;;4953191;29;20023;-69
2022/03/04 08:21:47;;;;;;;1.20;1.13;;;-3.90;99.90;;;;;;4952707;29;20161;-69
2022/03/04 08:24:12;;;;;;;4.07;1.17;;;-3.80;99.90;;;;;;4952590;28;20043;-68
2022/03/04 08:26:41;;;;;;;3.00;1.13;;;-3.70;99.90;;;;;;4952206;28;20023;-69
2022/03/04 08:29:10;;;;;;;1.90;1.30;;;-3.70;99.90;;;;;;4956650;28;20043;-68
2022/03/04 08:31:37;;;;;;;2.15;1.95;;;-3.60;99.90;;;;;;4956916;28;20030;-68
2022/03/04 08:34:04;;;;;;;1.30;1.20;;;-3.60;99.90;;;;;;4955381;29;20027;-68
2022/03/04 08:36:31;;;;;;;1.00;1.00;;;-3.50;99.90;;;;;;4957212;28;20023;-73
2022/03/04 08:38:57;;;;;;;2.55;1.20;;;-3.40;99.90;;;;;;4956580;28;20035;-70
2022/03/04 08:41:24;;;;;;;1.25;1.13;;;-3.40;99.90;;;;;;4957062;28;20094;-72
2022/03/04 08:43:51;;;;;;;1.02;0.90;;;-3.30;99.90;;;;;;4956938;28;20027;-69
2022/03/04 08:46:17;;;;;;;1.42;1.05;;;-3.20;99.90;;;;;;4956062;28;20074;-70
2022/03/04 08:48:43;;;;;;;2.40;0.98;;;-3.10;99.90;;;;;;4956366;28;20098;-69
2022/03/04 08:51:09;;;;;;;2.25;1.15;;;-3.10;99.90;;;;;;4956448;28;20246;-70
2022/03/04 08:53:35;;;;;;;4.50;1.13;;;-3.00;99.90;;;;;;4956312;28;20418;-67
2022/03/04 08:56:03;;;;;;;2.35;1.17;;;-1.70;99.90;;;;;;4956293;28;20034;-68
2022/03/04 08:58:28;;;;;;;0.88;0.88;;;-0.40;99.90;;;;;;4956458;28;20510;-68
2022/03/04 09:00:54;;;;;;;3.60;1.08;;;0.40;99.90;;;;;;4956244;29;20034;-68
2022/03/04 09:03:20;;;;;;;1.38;0.90;;;0.10;99.90;;;;;;4956350;29;20023;-68
2022/03/04 09:05:45;;;;;;;3.33;1.00;;;-0.40;99.90;;;;;;4955358;29;20027;-68
2022/03/04 09:08:11;;;;;;;1.58;0.93;;;-0.80;99.90;;;;;;4956029;29;20039;-68
2022/03/04 09:10:37;;;;;;;1.33;0.90;;;-1.00;99.90;;;;;;4956181;28;20383;-68
2022/03/04 09:13:07;;;;;;;3.95;1.00;;;-1.20;99.90;;;;;;4956277;29;20063;-68
2022/03/04 09:15:33;;;;;;;5.63;1.10;;;-1.30;99.90;;;;;;4956411;28;20035;-68
2022/03/04 09:17:59;;;;;;;0.80;0.80;;;-1.30;99.90;;;;;;4956017;28;20035;-68
2022/03/04 09:20:25;;;;;;;3.05;1.48;;;-1.30;99.90;;;;;;4956012;28;20545;-68
2022/03/04 09:22:51;;;;;;;3.25;1.15;;;-1.40;99.90;;;;;;4956033;28;20087;-68
2022/03/04 09:25:17;;;;;;;0.95;0.88;;;-1.50;99.90;;;;;;4955962;29;20027;-68
2022/03/04 09:27:44;;;;;;;1.10;0.80;;;-1.50;99.90;;;;;;4954624;29;20502;-68
2022/03/04 09:30:14;;;;;;;1.10;1.00;;;-1.50;99.90;;;;;;4955660;28;20019;-68
2022/03/04 09:32:40;;;;;;;6.90;1.03;;;-1.40;99.90;;;;;;4955878;28;20023;-68
2022/03/04 09:35:06;;;;;;;1.95;1.10;;;-1.40;99.90;;;;;;4955684;28;20078;-68
2022/03/04 09:37:32;;;;;;;1.15;0.90;;;-1.30;99.90;;;;;;4954194;28;20110;-68
2022/03/04 09:39:58;;;;;;;2.17;0.80;;;-1.30;99.90;;;;;;4954468;28;20066;-68
2022/03/04 09:42:24;;;;;;;3.70;0.88;;;-1.30;99.90;;;;;;4955784;29;20063;-68
2022/03/04 09:44:50;;;;;;;0.70;0.70;;;-1.20;99.90;;;;;;4955706;29;20027;-68
2022/03/04 09:47:23;;;;;;;1.92;0.80;;;-1.10;99.90;;;;;;4955766;28;20106;-68
2022/03/04 09:49:53;;;;;;;2.00;0.80;;;-1.10;99.90;;;;;;4955690;28;20031;-68
2022/03/04 09:52:19;;;;;;;1.48;0.70;;;-1.00;99.90;;;;;;4955699;28;20094;-68
2022/03/04 09:54:54;;;;;;;1.08;0.77;;;-1.00;99.90;;;;;;4955697;28;20430;-68
2022/03/04 09:57:21;;;;;;;1.50;0.88;;;-1.00;99.90;;;;;;4954229;29;20083;-69
2022/03/04 09:59:46;;;;;;;3.03;1.00;;;-0.90;99.90;;;;;;4955289;28;20034;-68
2022/03/04 10:02:12;;;;;;;4.53;0.70;;;-0.80;99.90;;;;;;4954999;28;20027;-68
2022/03/04 10:04:39;;;;;;;3.50;1.40;;;-0.60;99.90;;;;;;4955335;29;20123;-69
2022/03/04 10:07:16;;;;;;;0.82;0.73;;;3.20;99.90;;;;;;4954669;28;20039;-69
2022/03/04 10:09:43;;;;;;;1.23;0.80;;;4.30;99.90;;;;;;4955348;28;20106;-69
2022/03/04 10:12:10;;;;;;;1.75;0.68;;;3.40;99.90;;;;;;4955020;28;20111;-70
2022/03/04 10:14:55;;;;;;;0.77;0.77;;;2.50;97.30;;;;;;4955049;28;20106;-69
2022/03/04 10:17:21;;;;;;;6.18;1.00;;;2.80;99.90;;;;;;4954893;28;20066;-70
2022/03/04 10:19:54;;;;;;;0.70;0.70;;;4.40;99.90;;;;;;4954344;28;20023;-73
2022/03/04 10:22:20;;;;;;;2.53;0.90;;;4.70;99.90;;;;;;4954456;28;20035;-70
2022/03/04 10:24:45;;;;;;;1.23;0.70;;;3.90;99.90;;;;;;4955084;29;20418;-70
2022/03/04 10:27:14;;;;;;;2.38;1.00;;;3.10;96.00;;;;;;4954715;29;20035;-71
2022/03/04 10:29:42;;;;;;;1.70;1.00;;;2.60;96.30;;;;;;4954730;28;20099;-70
2022/03/04 10:32:13;;;;;;;4.07;0.95;;;2.20;97.50;;;;;;4950312;28;20376;-70
2022/03/04 10:34:45;;;;;;;2.78;0.80;;;1.90;97.00;;;;;;4934238;29;20047;-71
2022/03/04 10:37:11;;;;;;;1.52;0.80;;;1.70;96.50;;;;;;4947513;29;20035;-71
2022/03/04 10:39:55;;;;;;;0.95;0.63;;;1.60;96.90;;;;;;4954617;28;20090;-70
2022/03/04 10:42:38;;;;;;;4.13;1.08;;;1.60;99.90;;;;;;4954194;28;20161;-69
2022/03/04 10:45:07;;;;;;;2.03;1.00;;;1.60;99.00;;;;;;4953165;29;20071;-69
2022/03/04 10:47:44;;;;;;;2.55;1.00;;;1.50;98.10;;;;;;4954644;28;20039;-69
2022/03/04 10:50:12;;;;;;;1.75;1.02;;;1.50;97.70;;;;;;4953936;28;20027;-69
2022/03/04 10:53:08;;;;;;;7.15;1.05;;;1.40;97.50;;;;;;4954379;28;20031;-69
2022/03/04 10:55:45;;;;;;;3.65;1.00;;;1.40;96.30;;;;;;4953901;29;20089;-69
2022/03/04 10:58:19;;;;;;;5.95;1.33;;;1.40;96.40;;;;;;4953947;29;20034;-69
2022/03/04 11:00:48;;;;;;;10.85;1.40;;;1.40;96.90;;;;;;4953759;28;20011;-69
2022/03/04 11:03:26;;;;;;;4.65;1.05;;;1.40;97.30;;;;;;4953643;28;20421;-70
2022/03/04 11:05:58;;;;;;;4.47;0.85;;;1.40;96.90;;;;;;4954164;28;20019;-70
2022/03/04 11:08:24;;;;;;;5.13;1.25;;;1.30;96.20;;;;;;4953885;28;20502;-70
2022/03/04 11:10:52;;;;;;;3.85;0.95;;;1.30;96.30;;;;;;4953494;28;20027;-70
2022/03/04 11:13:18;;;;;;;8.93;1.08;;;1.20;96.20;;;;;;4953981;28;20027;-69
2022/03/04 11:15:46;;;;;;;3.45;1.48;;;1.20;95.50;;;;;;4953784;28;20015;-70
2022/03/04 11:18:14;;;;;;;5.00;1.10;;;1.20;95.70;;;;;;4953664;28;20023;-70
2022/03/04 11:20:42;;;;;;;5.80;1.10;;;1.20;95.90;;;;;;4953953;28;20019;-70
2022/03/04 11:23:10;;;;;;;5.05;1.88;;;1.30;95.90;;;;;;4953822;28;20474;-70
2022/03/04 11:25:43;;;;;;;14.35;2.22;;;1.30;96.30;;;;;;4953901;28;20031;-70
2022/03/04 11:28:14;;;;;;;6.05;1.15;;;1.40;96.10;;;;;;4953867;28;20572;-70
2022/03/04 11:30:51;;;;;;;3.05;0.82;;;1.40;95.00;;;;;;4952612;29;20023;-70
2022/03/04 11:33:19;;;;;;;4.25;1.70;;;1.30;95.10;;;;;;4953874;28;20027;-70
2022/03/04 11:36:06;;;;;;;6.75;1.58;;;1.30;95.30;;;;;;4953879;28;20020;-70
2022/03/04 11:38:44;;;;;;;5.15;1.25;;;1.40;95.10;;;;;;4953445;28;20101;-70
2022/03/04 11:41:11;;;;;;;4.15;1.00;;;1.40;94.40;;;;;;4953443;29;20030;-70
2022/03/04 11:43:59;;;;;;;8.30;1.10;;;1.40;94.30;;;;;;4953763;28;20030;-70
2022/03/04 11:46:40;;;;;;;7.65;1.30;;;1.40;94.50;;;;;;4953507;29;20028;-70
2022/03/04 11:49:27;;;;;;;1.00;0.88;;;1.40;94.40;;;;;;4953353;28;20035;-70
2022/03/04 11:52:11;;;;;;;5.65;1.00;;;1.40;94.30;;;;;;4952557;29;20498;-70
2022/03/04 11:54:41;;;;;;;2.35;1.40;;;1.50;93.90;;;;;;4953932;28;20027;-69
2022/03/04 11:57:22;;;;;;;2.13;0.80;;;1.50;93.40;;;;;;4952263;28;20031;-69
2022/03/04 11:59:53;;;;;;;;;;;1.50;93.90;;;;;;4953944;29;20073;-68
2022/03/04 12:02:35;;;;;;;2.80;0.93;;;1.50;93.10;;;;;;4954645;28;19906;-68
2022/03/04 12:05:22;;;;;;;2.05;1.10;;;1.50;93.00;;;;;;4957264;28;20103;-68
2022/03/04 12:07:52;;;;;;;2.83;0.88;;;1.60;93.80;;;;;;4956984;29;20039;-69
2022/03/04 12:10:21;;;;;;;1.52;0.80;;;1.70;99.90;;;;;;4956756;28;20031;-71
2022/03/04 12:13:02;;;;;;;3.67;1.05;;;1.90;98.30;;;;;;4956197;28;20035;-70
2022/03/04 12:15:44;;;;;;;1.08;0.93;;;1.90;94.40;;;;;;4956620;28;20173;-71
2022/03/04 12:18:27;;;;;;;5.32;1.20;;;1.90;93.40;;;;;;4970709;28;20114;-71
2022/03/04 12:20:56;;;;;;;2.70;0.82;;;1.90;92.80;;;;;;4944190;29;20024;-72
2022/03/04 12:23:41;;;;;;;5.05;1.10;;;1.90;92.50;;;;;;4956865;29;20062;-71
2022/03/04 12:26:08;;;;;;;2.85;1.10;;;1.90;92.80;;;;;;4957379;28;20027;-72
2022/03/04 12:28:39;;;;;;;5.88;2.30;;;3.80;99.90;;;;;;4956890;29;20495;-72
2022/03/04 12:31:05;;;;;;;9.20;1.17;;;4.10;99.20;;;;;;4956740;29;20439;-72
2022/03/04 12:33:42;;;;;;;2.05;0.90;;;3.60;92.60;;;;;;4956936;28;20023;-72
2022/03/04 12:36:10;;;;;;;9.27;1.10;;;3.20;92.10;;;;;;4956460;28;20044;-74
2022/03/04 12:38:51;;;;;;;4.97;0.90;;;2.90;91.90;;;;;;4956691;28;20074;-72
2022/03/04 12:41:19;;;;;;;2.13;0.93;;;2.80;92.40;;;;;;4955300;29;20034;-72
2022/03/04 12:43:51;;;;;;;4.30;0.98;;;2.70;92.90;;;;;;4956817;28;20023;-73
2022/03/04 12:46:22;;;;;;;3.78;1.55;;;2.70;91.90;;;;;;4956421;28;20023;-73
2022/03/04 12:48:50;;;;;;;2.83;0.80;;;2.60;91.50;;;;;;4956566;28;20558;-73
2022/03/04 12:51:19;;;;;;;1.85;0.60;;;2.50;91.10;;;;;;4956351;28;20069;-73
2022/03/04 12:53:45;;;;;;;9.32;1.95;;;2.50;90.50;;;;;;4956577;28;20491;-73
2022/03/04 12:56:12;;;;;;;13.95;1.50;;;2.40;90.90;;;;;;4956263;28;20083;-72
2022/03/04 12:58:46;;;;;;;7.28;0.93;;;2.40;91.60;;;;;;4956504;28;20023;-73
2022/03/04 13:01:13;;;;;;;2.75;0.80;;;2.50;92.00;;;;;;4956198;28;20062;-75
2022/03/04 13:03:42;;;;;;;1.98;0.70;;;4.60;99.90;;;;;;4953411;28;20035;-77
2022/03/04 13:06:08;;;;;;;1.00;0.70;;;5.00;94.90;;;;;;4953022;29;20378;-73
2022/03/04 13:08:34;;;;;;;3.35;0.70;;;4.40;90.70;;;;;;4946867;29;20118;-75
2022/03/04 13:11:17;;;;;;;2.65;0.82;;;4.00;90.60;;;;;;4938483;28;20032;-75
2022/03/04 13:14:07;;;;;;;1.00;0.75;;;3.70;90.20;;;;;;4949828;28;20035;-74
2022/03/04 13:16:49;;;;;;;1.30;0.50;;;3.60;90.30;;;;;;4950819;29;20035;-75
2022/03/04 13:19:17;;;;;;;1.55;0.75;;;3.30;90.50;;;;;;4955044;28;20019;-72
2022/03/04 13:21:49;;;;;;;0.43;0.43;;;3.10;90.70;;;;;;4955593;28;20047;-72
2022/03/04 13:24:24;;;;;;;1.58;0.77;;;3.00;90.70;;;;;;4955509;28;20168;-71
2022/03/04 13:26:54;;;;;;;2.55;0.60;;;2.90;90.70;;;;;;4953920;29;20038;-71
2022/03/04 13:29:21;;;;;;;1.10;0.77;;;2.90;91.10;;;;;;4954856;29;20499;-71
2022/03/04 13:31:47;;;;;;;1.92;0.55;;;2.80;91.40;;;;;;4952652;28;20031;-72
2022/03/04 13:34:14;;;;;;;1.90;0.60;;;2.80;91.60;;;;;;4955152;28;20059;-72
2022/03/04 13:36:51;;;;;;;3.30;0.80;;;2.70;91.50;;;;;;4955341;28;20023;-72
2022/03/04 13:39:27;;;;;;;2.83;0.80;;;2.70;91.80;;;;;;4953931;28;20127;-72
2022/03/04 13:42:13;;;;;;;2.00;0.70;;;2.70;92.00;;;;;;4968855;28;20037;-71
2022/03/04 13:44:54;;;;;;;4.05;1.05;;;2.70;92.70;;;;;;4953981;28;20027;-70
2022/03/04 13:47:55;;;;;;;8.82;0.93;;;2.70;92.60;;;;;;4951081;29;20024;-71
2022/03/04 13:50:25;;;;;;;2.15;0.57;;;2.80;91.90;;;;;;4953843;28;20023;-72
2022/03/04 13:52:59;;;;;;;0.95;0.60;;;2.80;91.90;;;;;;4954053;28;20077;-71
2022/03/04 13:55:46;;;;;;;4.45;0.80;;;2.80;92.10;;;;;;4953680;28;20019;-71
2022/03/04 13:58:16;;;;;;;6.20;0.73;;;2.80;94.10;;;;;;4953777;28;20015;-70
2022/03/04 14:00:43;;;;;;;1.58;0.80;;;3.10;97.00;;;;;;4951538;28;20073;-70
2022/03/04 14:03:13;;;;;;;5.13;1.38;;;3.10;92.10;;;;;;4940391;29;20024;-71